createdAt,value
2019-02-08T00:01:58.103Z,5.10
2019-02-08T00:04:24.252Z,5.10
2019-02-08T00:06:51.941Z,5.00
2019-02-08T00:09:18.127Z,5.00
2019-02-08T00:11:46.907Z,5.00
2019-02-08T00:14:12.967Z,5.00
2019-02-08T00:16:39.022Z,5.00
2019-02-08T00:19:05.186Z,5.00
2019-02-08T00:21:31.237Z,5.00
2019-02-08T00:23:57.258Z,5.00
2019-02-08T00:26:23.271Z,5.00
2019-02-08T00:28:49.293Z,5.00
2019-02-08T00:31:15.461Z,5.00
2019-02-08T00:33:43.232Z,4.90
2019-02-08T00:36:09.354Z,5.00
2019-02-08T00:38:35.473Z,5.00
2019-02-08T00:41:01.581Z,5.10
2019-02-08T00:43:27.619Z,5.10
2019-02-08T00:45:53.648Z,5.10
2019-02-08T00:48:19.715Z,5.10
2019-02-08T00:50:47.539Z,5.10
2019-02-08T00:53:14.028Z,5.10
2019-02-08T00:55:40.427Z,5.10
2019-02-08T00:58:06.539Z,5.10
2019-02-08T01:00:32.649Z,5.10
2019-02-08T01:03:00.712Z,5.20
2019-02-08T01:05:27.871Z,5.20
2019-02-08T01:07:54.893Z,5.20
2019-02-08T01:10:24.191Z,5.20
2019-02-08T01:12:50.433Z,5.20
2019-02-08T01:15:18.589Z,5.20
2019-02-08T01:17:45.688Z,5.20
2019-02-08T01:20:22.851Z,5.20
2019-02-08T01:22:49.193Z,5.10
2019-02-08T01:25:22.580Z,5.10
2019-02-08T01:27:49.021Z,5.10
2019-02-08T01:30:17.488Z,5.10
2019-02-08T01:32:43.513Z,5.10
2019-02-08T01:35:11.069Z,5.10
2019-02-08T01:37:37.199Z,5.10
2019-02-08T01:40:10.081Z,5.10
2019-02-08T01:42:38.074Z,5.10
2019-02-08T01:45:13.693Z,5.00
2019-02-08T01:47:39.723Z,5.00
2019-02-08T01:50:09.641Z,5.10
2019-02-08T01:52:35.672Z,5.10
2019-02-08T01:55:02.630Z,5.10
2019-02-08T01:57:28.701Z,5.10
2019-02-08T01:59:54.711Z,5.10
2019-02-08T02:02:22.161Z,5.10
2019-02-08T02:04:48.334Z,5.10
2019-02-08T02:07:14.374Z,5.20
2019-02-08T02:09:40.487Z,5.20
2019-02-08T02:12:06.624Z,5.20
2019-02-08T02:14:32.647Z,5.20
2019-02-08T02:16:58.730Z,5.30
2019-02-08T02:19:24.980Z,5.30
2019-02-08T02:21:51.068Z,5.30
2019-02-08T02:24:17.097Z,5.30
2019-02-08T02:26:44.126Z,5.30
2019-02-08T02:29:10.243Z,5.30
2019-02-08T02:31:36.269Z,5.30
2019-02-08T02:34:02.776Z,5.30
2019-02-08T02:36:28.887Z,5.30
2019-02-08T02:38:55.111Z,5.30
2019-02-08T02:41:21.154Z,5.30
2019-02-08T02:43:47.388Z,5.30
2019-02-08T02:46:13.640Z,5.30
2019-02-08T02:48:39.677Z,5.30
2019-02-08T02:51:08.586Z,5.30
2019-02-08T02:53:34.740Z,5.30
2019-02-08T02:56:00.834Z,5.30
2019-02-08T02:58:26.905Z,5.40
2019-02-08T03:00:56.590Z,5.40
2019-02-08T03:03:22.775Z,5.40
2019-02-08T03:05:50.641Z,5.40
2019-02-08T03:08:16.857Z,5.50
2019-02-08T03:10:43.497Z,5.50
2019-02-08T03:13:09.975Z,5.50
2019-02-08T03:15:37.576Z,5.50
2019-02-08T03:18:04.094Z,5.50
2019-02-08T03:20:30.159Z,5.50
2019-02-08T03:22:56.228Z,5.50
2019-02-08T03:25:24.104Z,5.50
2019-02-08T03:27:50.658Z,5.60
2019-02-08T03:30:33.132Z,5.50
2019-02-08T03:33:01.495Z,5.50
2019-02-08T03:35:27.899Z,5.50
2019-02-08T03:37:56.262Z,5.50
2019-02-08T03:40:26.155Z,5.50
2019-02-08T03:42:53.318Z,5.50
2019-02-08T03:45:19.874Z,5.50
2019-02-08T03:47:45.954Z,5.50
2019-02-08T03:50:17.099Z,5.50
2019-02-08T03:52:43.241Z,5.50
2019-02-08T03:55:14.593Z,5.50
2019-02-08T03:57:41.347Z,5.50
2019-02-08T04:00:17.049Z,5.50
2019-02-08T04:02:43.297Z,5.50
2019-02-08T04:05:09.654Z,5.50
2019-02-08T04:07:35.943Z,5.50
2019-02-08T04:10:05.786Z,5.50
2019-02-08T04:12:31.815Z,5.50
2019-02-08T04:14:57.835Z,5.50
2019-02-08T04:17:24.069Z,5.50
2019-02-08T04:19:50.192Z,5.40
2019-02-08T04:22:16.206Z,5.40
2019-02-08T04:24:42.245Z,5.40
2019-02-08T04:27:10.207Z,5.50
2019-02-08T04:29:36.207Z,5.50
2019-02-08T04:32:02.357Z,5.50
2019-02-08T04:34:28.381Z,5.50
2019-02-08T04:36:56.633Z,5.40
2019-02-08T04:39:22.658Z,5.50
2019-02-08T04:41:48.885Z,5.50
2019-02-08T04:44:15.035Z,5.40
2019-02-08T04:46:41.327Z,5.50
2019-02-08T04:49:07.809Z,5.50
2019-02-08T04:51:33.950Z,5.50
2019-02-08T04:54:00.241Z,5.50
2019-02-08T04:56:26.281Z,5.50
2019-02-08T04:58:52.483Z,5.50
2019-02-08T05:01:18.599Z,5.50
2019-02-08T05:03:44.623Z,5.50
2019-02-08T05:06:10.678Z,5.50
2019-02-08T05:08:36.782Z,5.50
2019-02-08T05:11:02.815Z,5.50
2019-02-08T05:13:28.911Z,5.60
2019-02-08T05:15:56.050Z,5.60
2019-02-08T05:18:24.302Z,5.60
2019-02-08T05:20:50.303Z,5.60
2019-02-08T05:23:16.366Z,5.60
2019-02-08T05:25:42.537Z,5.60
2019-02-08T05:28:08.565Z,5.60
2019-02-08T05:30:36.615Z,5.60
2019-02-08T05:33:04.335Z,5.60
2019-02-08T05:35:30.439Z,5.60
2019-02-08T05:37:56.745Z,5.60
2019-02-08T05:40:23.277Z,5.60
2019-02-08T05:42:49.508Z,5.70
2019-02-08T05:45:20.500Z,5.70
2019-02-08T05:47:46.979Z,5.60
2019-02-08T05:50:24.304Z,5.60
2019-02-08T05:52:50.758Z,5.60
2019-02-08T05:55:22.753Z,5.60
2019-02-08T05:57:48.904Z,5.60
2019-02-08T06:00:20.557Z,5.60
2019-02-08T06:02:47.710Z,5.70
2019-02-08T06:05:15.508Z,5.70
2019-02-08T06:07:41.623Z,5.70
2019-02-08T06:10:11.336Z,5.70
2019-02-08T06:12:39.795Z,5.70
2019-02-08T06:15:09.639Z,5.70
2019-02-08T06:17:35.717Z,5.60
2019-02-08T06:20:08.099Z,5.70
2019-02-08T06:22:35.233Z,5.90
2019-02-08T06:25:03.963Z,5.90
2019-02-08T06:27:29.383Z,5.80
2019-02-08T06:29:55.746Z,5.80
2019-02-08T06:32:21.865Z,5.70
2019-02-08T06:34:48.197Z,5.70
2019-02-08T06:37:14.197Z,5.70
2019-02-08T06:39:40.238Z,5.60
2019-02-08T06:42:06.400Z,5.60
2019-02-08T06:44:32.891Z,5.60
2019-02-08T06:46:59.282Z,5.60
2019-02-08T06:49:25.395Z,5.60
2019-02-08T06:51:51.640Z,5.60
2019-02-08T06:54:17.789Z,5.60
2019-02-08T06:57:02.778Z,5.60
2019-02-08T06:59:32.264Z,5.60
2019-02-08T07:02:06.084Z,5.60
2019-02-08T07:04:34.080Z,5.60
2019-02-08T07:07:02.089Z,5.60
2019-02-08T07:09:44.887Z,5.70
2019-02-08T07:12:17.467Z,5.70
2019-02-08T07:15:01.547Z,5.70
2019-02-08T07:17:35.407Z,5.70
2019-02-08T07:20:15.575Z,5.70
2019-02-08T07:23:00.092Z,5.80
2019-02-08T07:25:33.857Z,5.80
2019-02-08T07:28:07.770Z,5.80
2019-02-08T07:30:48.017Z,5.80
2019-02-08T07:33:32.469Z,5.90
2019-02-08T07:36:17.099Z,5.90
2019-02-08T07:38:45.393Z,5.90
2019-02-08T07:41:16.558Z,5.90
2019-02-08T07:43:54.850Z,5.90
2019-02-08T07:46:27.776Z,6.00
2019-02-08T07:49:03.165Z,6.00
2019-02-08T07:51:34.831Z,6.00
2019-02-08T07:54:11.915Z,6.10
2019-02-08T07:56:39.984Z,6.10
2019-02-08T07:59:21.618Z,6.20
2019-02-08T08:01:52.409Z,6.20
2019-02-08T08:04:32.765Z,6.20
2019-02-08T08:07:01.932Z,6.20
2019-02-08T08:09:38.765Z,6.20
2019-02-08T08:12:09.522Z,6.30
2019-02-08T08:14:39.286Z,6.30
2019-02-08T08:17:27.557Z,6.30
2019-02-08T08:19:58.558Z,6.30
2019-02-08T08:22:27.061Z,6.30
2019-02-08T08:25:03.758Z,6.30
2019-02-08T08:27:41.841Z,6.40
2019-02-08T08:30:13.586Z,6.40
2019-02-08T08:32:43.143Z,6.40
2019-02-08T08:35:14.245Z,6.40
2019-02-08T08:37:59.346Z,6.40
2019-02-08T08:40:55.830Z,6.40
2019-02-08T08:43:38.129Z,6.50
2019-02-08T08:46:26.611Z,6.50
2019-02-08T08:48:59.576Z,6.50
2019-02-08T08:51:31.962Z,6.50
2019-02-08T08:54:13.678Z,6.50
2019-02-08T08:56:43.500Z,6.50
2019-02-08T08:59:22.150Z,6.50
2019-02-08T09:02:13.193Z,6.50
2019-02-08T09:05:07.203Z,6.60
2019-02-08T09:07:57.929Z,6.60
2019-02-08T09:10:45.418Z,6.60
2019-02-08T09:13:29.366Z,6.60
2019-02-08T09:16:09.207Z,6.60
2019-02-08T09:18:54.083Z,6.60
2019-02-08T09:21:36.071Z,6.70
2019-02-08T09:24:08.814Z,6.70
2019-02-08T09:26:50.377Z,6.70
2019-02-08T09:29:53.449Z,6.70
2019-02-08T09:32:41.123Z,6.70
2019-02-08T09:35:22.314Z,6.70
2019-02-08T09:38:25.791Z,6.80
2019-02-08T09:41:15.153Z,6.80
2019-02-08T09:43:47.557Z,6.80
2019-02-08T09:46:17.502Z,6.90
2019-02-08T09:48:49.264Z,6.90
2019-02-08T09:51:38.541Z,6.90
2019-02-08T09:54:41.290Z,6.90
2019-02-08T09:57:16.967Z,6.90
2019-02-08T10:00:12.543Z,6.90
2019-02-08T10:02:53.970Z,6.90
2019-02-08T10:05:47.551Z,6.90
2019-02-08T10:08:42.656Z,6.90
2019-02-08T10:11:18.551Z,7.00
2019-02-08T10:13:55.827Z,7.00
2019-02-08T10:16:31.547Z,7.00
2019-02-08T10:19:01.463Z,7.00
2019-02-08T10:21:37.241Z,7.10
2019-02-08T10:24:18.674Z,7.10
2019-02-08T10:27:26.712Z,7.10
2019-02-08T10:30:21.618Z,7.10
2019-02-08T10:33:03.306Z,7.20
2019-02-08T10:35:52.664Z,7.20
2019-02-08T10:38:42.346Z,7.30
2019-02-08T10:41:37.750Z,7.30
2019-02-08T10:44:33.234Z,7.30
2019-02-08T10:47:19.820Z,7.30
2019-02-08T10:50:07.858Z,7.30
2019-02-08T10:53:06.304Z,7.20
2019-02-08T10:55:55.907Z,7.30
2019-02-08T10:58:54.273Z,7.20
2019-02-08T11:01:57.286Z,7.30
2019-02-08T11:04:42.253Z,7.40
2019-02-08T11:07:37.783Z,7.50
2019-02-08T11:10:18.886Z,7.60
2019-02-08T11:12:54.492Z,7.70
2019-02-08T11:15:30.354Z,7.70
2019-02-08T11:18:19.015Z,7.80
2019-02-08T11:20:45.029Z,8.00
2019-02-08T11:23:11.206Z,8.30
2019-02-08T11:25:37.427Z,8.30
2019-02-08T11:28:05.972Z,8.30
2019-02-08T11:30:32.114Z,8.30
2019-02-08T11:32:58.262Z,8.40
2019-02-08T11:35:25.567Z,8.50
2019-02-08T11:37:51.797Z,8.50
2019-02-08T11:40:21.698Z,8.60
2019-02-08T11:42:47.907Z,8.60
2019-02-08T11:45:15.380Z,8.60
2019-02-08T11:47:41.523Z,8.60
2019-02-08T11:50:18.814Z,8.70
2019-02-08T11:52:45.020Z,8.70
2019-02-08T11:55:11.935Z,8.70
2019-02-08T11:57:39.027Z,8.70
2019-02-08T12:00:11.882Z,8.80
2019-02-08T12:02:40.611Z,8.80
2019-02-08T12:05:06.506Z,8.80
2019-02-08T12:07:32.534Z,8.90
2019-02-08T12:09:58.639Z,8.90
2019-02-08T12:12:24.803Z,8.90
2019-02-08T12:14:50.951Z,8.90
2019-02-08T12:17:17.068Z,8.90
2019-02-08T12:19:43.400Z,8.80
2019-02-08T12:22:09.531Z,8.90
2019-02-08T12:24:35.539Z,8.90
2019-02-08T12:27:01.637Z,8.90
2019-02-08T12:29:27.854Z,8.80
2019-02-08T12:31:54.019Z,8.80
2019-02-08T12:34:20.099Z,8.90
2019-02-08T12:36:46.527Z,9.00
2019-02-08T12:39:12.603Z,9.10
2019-02-08T12:41:38.935Z,9.10
2019-02-08T12:44:06.052Z,9.00
2019-02-08T12:46:32.085Z,8.90
2019-02-08T12:48:58.289Z,8.80
2019-02-08T12:51:24.357Z,8.80
2019-02-08T12:53:50.491Z,8.80
2019-02-08T12:56:16.649Z,8.80
2019-02-08T12:58:44.154Z,8.80
2019-02-08T13:01:10.296Z,8.80
2019-02-08T13:03:36.328Z,8.70
2019-02-08T13:06:03.579Z,8.70
2019-02-08T13:08:29.609Z,8.70
2019-02-08T13:10:55.832Z,8.70
2019-02-08T13:13:24.381Z,8.80
2019-02-08T13:15:50.547Z,8.70
2019-02-08T13:18:16.660Z,8.80
2019-02-08T13:20:42.929Z,8.80
2019-02-08T13:23:10.301Z,8.80
2019-02-08T13:25:36.480Z,8.80
2019-02-08T13:28:03.955Z,8.80
2019-02-08T13:30:31.706Z,8.80
2019-02-08T13:32:57.754Z,8.80
2019-02-08T13:35:24.006Z,9.00
2019-02-08T13:37:50.511Z,9.10
2019-02-08T13:40:25.422Z,9.10
2019-02-08T13:42:51.571Z,9.10
2019-02-08T13:45:17.798Z,9.10
2019-02-08T13:47:44.432Z,9.20
2019-02-08T13:50:27.887Z,9.60
2019-02-08T13:52:53.951Z,9.80
2019-02-08T13:55:25.956Z,10.00
2019-02-08T13:57:52.445Z,9.70
2019-02-08T14:00:28.312Z,9.50
2019-02-08T14:02:54.710Z,9.30
2019-02-08T14:05:20.872Z,9.30
2019-02-08T14:07:47.012Z,9.30
2019-02-08T14:10:16.194Z,9.20
2019-02-08T14:12:42.322Z,9.20
2019-02-08T14:15:11.360Z,9.20
2019-02-08T14:17:37.438Z,9.20
2019-02-08T14:20:07.299Z,9.10
2019-02-08T14:22:33.413Z,9.10
2019-02-08T14:24:59.570Z,9.10
2019-02-08T14:27:25.732Z,9.10
2019-02-08T14:29:53.686Z,9.00
2019-02-08T14:32:19.764Z,9.10
2019-02-08T14:34:45.841Z,9.10
2019-02-08T14:37:13.072Z,9.00
2019-02-08T14:39:39.123Z,9.00
2019-02-08T14:42:05.137Z,9.00
2019-02-08T14:44:31.187Z,9.10
2019-02-08T14:46:57.187Z,9.10
2019-02-08T14:49:24.609Z,9.00
2019-02-08T14:51:50.696Z,9.00
2019-02-08T14:54:16.759Z,9.00
2019-02-08T14:56:43.007Z,9.10
2019-02-08T14:59:11.211Z,9.00
2019-02-08T15:01:37.440Z,9.00
2019-02-08T15:04:05.123Z,9.00
2019-02-08T15:06:31.339Z,9.00
2019-02-08T15:08:57.542Z,9.00
2019-02-08T15:11:24.963Z,9.00
2019-02-08T15:13:51.041Z,8.90
2019-02-08T15:16:17.200Z,8.90
2019-02-08T15:18:43.216Z,8.90
2019-02-08T15:21:09.583Z,8.90
2019-02-08T15:23:35.634Z,8.90
2019-02-08T15:26:05.228Z,8.90
2019-02-08T15:28:31.361Z,8.90
2019-02-08T15:30:57.493Z,8.90
2019-02-08T15:33:26.030Z,8.90
2019-02-08T15:35:52.226Z,8.90
2019-02-08T15:38:18.350Z,9.00
2019-02-08T15:40:48.319Z,8.90
2019-02-08T15:43:16.829Z,9.00
2019-02-08T15:45:46.759Z,9.00
2019-02-08T15:48:12.900Z,9.00
2019-02-08T15:50:39.058Z,9.00
2019-02-08T15:53:07.980Z,9.00
2019-02-08T15:55:40.592Z,9.00
2019-02-08T15:58:07.549Z,9.00
2019-02-08T16:00:36.921Z,9.10
2019-02-08T16:03:05.540Z,9.10
2019-02-08T16:05:32.238Z,9.10
2019-02-08T16:08:00.081Z,9.00
2019-02-08T16:10:26.534Z,9.00
2019-02-08T16:12:52.540Z,9.10
2019-02-08T16:15:23.756Z,9.10
2019-02-08T16:17:50.189Z,9.10
2019-02-08T16:20:18.585Z,9.10
2019-02-08T16:22:44.944Z,9.10
2019-02-08T16:25:13.459Z,9.00
2019-02-08T16:27:40.016Z,9.10
2019-02-08T16:30:15.454Z,9.10
2019-02-08T16:32:41.620Z,9.10
2019-02-08T16:35:09.790Z,9.10
2019-02-08T16:37:36.853Z,9.10
2019-02-08T16:40:08.084Z,9.10
2019-02-08T16:42:36.234Z,9.10
2019-02-08T16:45:06.104Z,9.10
2019-02-08T16:47:33.443Z,9.10
2019-02-08T16:50:06.341Z,9.20
2019-02-08T16:52:32.500Z,9.10
2019-02-08T16:54:58.680Z,9.10
2019-02-08T16:57:24.750Z,9.10
2019-02-08T16:59:51.394Z,9.00
2019-02-08T17:02:17.813Z,9.00
2019-02-08T17:04:45.962Z,9.00
2019-02-08T17:07:13.238Z,9.00
2019-02-08T17:09:39.291Z,8.90
2019-02-08T17:12:06.591Z,8.90
2019-02-08T17:14:33.249Z,8.80
2019-02-08T17:16:59.441Z,8.80
2019-02-08T17:19:26.492Z,8.90
2019-02-08T17:21:52.631Z,8.90
2019-02-08T17:24:20.138Z,8.90
2019-02-08T17:26:47.338Z,8.80
2019-02-08T17:29:14.624Z,8.80
2019-02-08T17:31:42.537Z,8.80
2019-02-08T17:34:10.481Z,8.70
2019-02-08T17:36:38.081Z,8.70
2019-02-08T17:39:06.611Z,8.70
2019-02-08T17:41:32.772Z,8.70
2019-02-08T17:43:58.916Z,8.70
2019-02-08T17:46:28.606Z,8.70
2019-02-08T17:48:58.173Z,8.60
2019-02-08T17:51:24.328Z,8.60
2019-02-08T17:53:52.811Z,8.60
2019-02-08T17:56:18.870Z,8.60
2019-02-08T17:58:47.524Z,8.60
2019-02-08T18:01:14.670Z,8.70
2019-02-08T18:03:40.691Z,8.60
2019-02-08T18:06:07.703Z,8.60
2019-02-08T18:08:34.826Z,8.60
2019-02-08T18:11:01.163Z,8.60
2019-02-08T18:13:27.279Z,8.60
2019-02-08T18:15:55.897Z,8.60
2019-02-08T18:18:24.269Z,8.70
2019-02-08T18:20:53.239Z,8.90
2019-02-08T18:23:20.810Z,9.10
2019-02-08T18:25:48.530Z,9.00
2019-02-08T18:28:14.640Z,9.00
2019-02-08T18:30:40.934Z,8.90
2019-02-08T18:33:07.096Z,8.70
2019-02-08T18:35:33.397Z,8.70
2019-02-08T18:37:59.652Z,8.70
2019-02-08T18:40:26.951Z,8.70
2019-02-08T18:42:54.988Z,8.80
2019-02-08T18:45:24.464Z,8.70
2019-02-08T18:47:51.166Z,8.70
2019-02-08T18:50:20.986Z,8.60
2019-02-08T18:52:47.308Z,8.60
2019-02-08T18:55:13.695Z,8.60
2019-02-08T18:57:39.936Z,8.60
2019-02-08T19:00:28.873Z,8.60
2019-02-08T19:02:55.038Z,8.60
2019-02-08T19:05:21.255Z,8.60
2019-02-08T19:07:49.505Z,8.60
2019-02-08T19:10:21.184Z,8.60
2019-02-08T19:12:47.392Z,8.70
2019-02-08T19:15:15.666Z,8.60
2019-02-08T19:17:41.876Z,8.60
2019-02-08T19:20:11.278Z,8.60
2019-02-08T19:22:37.403Z,8.60
2019-02-08T19:25:13.266Z,8.60
2019-02-08T19:27:39.659Z,8.60
2019-02-08T19:30:09.631Z,8.60
2019-02-08T19:32:37.593Z,8.60
2019-02-08T19:35:07.373Z,8.60
2019-02-08T19:37:35.604Z,8.70
2019-02-08T19:40:08.555Z,8.70
2019-02-08T19:42:35.723Z,8.60
2019-02-08T19:45:07.785Z,8.70
2019-02-08T19:47:34.938Z,8.70
2019-02-08T19:50:04.667Z,8.70
2019-02-08T19:52:31.465Z,8.70
2019-02-08T19:54:58.213Z,8.70
2019-02-08T19:57:28.720Z,8.70
2019-02-08T19:59:55.786Z,8.80
2019-02-08T20:02:24.350Z,8.80
2019-02-08T20:04:50.770Z,8.80
2019-02-08T20:07:20.642Z,8.80
2019-02-08T20:09:47.258Z,8.80
2019-02-08T20:12:13.531Z,8.90
2019-02-08T20:14:40.937Z,8.90
2019-02-08T20:17:09.417Z,8.90
2019-02-08T20:19:37.460Z,8.90
2019-02-08T20:22:04.116Z,8.90
2019-02-08T20:24:30.261Z,8.90
2019-02-08T20:27:00.710Z,8.80
2019-02-08T20:29:29.093Z,8.90
2019-02-08T20:31:55.751Z,8.90
2019-02-08T20:34:21.804Z,8.90
2019-02-08T20:36:48.142Z,8.90
2019-02-08T20:39:14.694Z,8.90
2019-02-08T20:41:43.938Z,8.90
2019-02-08T20:44:11.718Z,8.90
2019-02-08T20:46:37.810Z,8.90
2019-02-08T20:49:04.122Z,8.80
2019-02-08T20:51:31.810Z,8.80
2019-02-08T20:53:57.969Z,8.80
2019-02-08T20:56:31.627Z,8.80
2019-02-08T20:58:58.225Z,8.80
2019-02-08T21:01:28.564Z,8.80
2019-02-08T21:03:57.583Z,8.80
2019-02-08T21:06:26.471Z,8.80
2019-02-08T21:08:54.693Z,8.70
2019-02-08T21:11:21.132Z,8.70
2019-02-08T21:13:49.030Z,8.80
2019-02-08T21:16:17.886Z,8.80
2019-02-08T21:18:43.961Z,8.70
2019-02-08T21:21:11.369Z,8.70
2019-02-08T21:23:37.517Z,8.70
2019-02-08T21:26:04.033Z,8.90
2019-02-08T21:28:30.987Z,9.00
2019-02-08T21:30:57.736Z,9.00
2019-02-08T21:33:24.371Z,9.00
2019-02-08T21:35:50.464Z,9.00
2019-02-08T21:38:17.736Z,9.00
2019-02-08T21:40:44.861Z,8.90
2019-02-08T21:43:11.214Z,8.90
2019-02-08T21:45:39.816Z,8.80
2019-02-08T21:48:08.234Z,8.70
2019-02-08T21:50:34.399Z,8.70
2019-02-08T21:53:03.848Z,8.60
2019-02-08T21:55:30.097Z,8.60
2019-02-08T21:57:56.401Z,8.60
2019-02-08T22:00:33.913Z,8.50
2019-02-08T22:03:00.500Z,8.50
2019-02-08T22:05:29.073Z,8.50
2019-02-08T22:07:55.174Z,8.50
2019-02-08T22:10:22.678Z,8.50
2019-02-08T22:12:48.854Z,8.40
2019-02-08T22:15:18.048Z,8.50
2019-02-08T22:17:44.329Z,8.50
2019-02-08T22:20:15.269Z,8.50
2019-02-08T22:22:43.956Z,8.40
2019-02-08T22:25:17.183Z,8.40
2019-02-08T22:27:44.937Z,8.40
2019-02-08T22:30:17.523Z,8.40
2019-02-08T22:32:44.150Z,8.50
2019-02-08T22:35:12.591Z,8.40
2019-02-08T22:37:39.393Z,8.50
2019-02-08T22:40:09.067Z,8.50
2019-02-08T22:42:35.174Z,8.40
2019-02-08T22:45:08.961Z,8.40
2019-02-08T22:47:32.580Z,8.40
2019-02-08T22:49:58.891Z,8.40
2019-02-08T22:52:24.980Z,8.40
2019-02-08T22:54:52.366Z,8.40
2019-02-08T22:57:18.401Z,8.40
2019-02-08T22:59:44.423Z,8.40
2019-02-08T23:02:11.355Z,8.40
2019-02-08T23:04:37.783Z,8.40
2019-02-08T23:07:06.795Z,8.40
2019-02-08T23:09:32.928Z,8.40
2019-02-08T23:11:59.402Z,8.40
2019-02-08T23:14:27.540Z,8.40
2019-02-08T23:16:53.712Z,8.40
2019-02-08T23:19:19.832Z,8.40
2019-02-08T23:21:45.848Z,8.40
2019-02-08T23:24:14.441Z,8.30
2019-02-08T23:26:40.617Z,8.30
2019-02-08T23:29:06.737Z,8.30
2019-02-08T23:31:33.277Z,8.30
2019-02-08T23:33:59.681Z,8.30
2019-02-08T23:36:26.236Z,8.30
2019-02-08T23:38:52.266Z,8.40
2019-02-08T23:41:18.493Z,8.40
2019-02-08T23:43:45.854Z,8.40
2019-02-08T23:46:16.674Z,8.40
2019-02-08T23:48:42.785Z,8.40
2019-02-08T23:51:09.118Z,8.40
2019-02-08T23:53:35.594Z,8.40
2019-02-08T23:56:04.137Z,8.50
2019-02-08T23:58:30.173Z,8.50
